sensor_id;sensor_type;location;lat;lon;timestamp;temperature;humidity
2605;DHT22;1312;50.298;8.520;2024-03-23T00:54:01;6.90;99.90
2605;DHT22;1312;50.298;8.520;2024-03-23T00:56:29;7.00;99.90
2605;DHT22;1312;50.298;8.520;2024-03-23T00:58:55;7.00;99.90
2605;DHT22;1312;50.298;8.520;2024-03-23T01:01:22;7.00;99.90
2605;DHT22;1312;50.298;8.520;2024-03-23T01:03:48;7.10;90.60
2605;DHT22;1312;50.298;8.520;2024-03-23T01:06:15;7.10;68.70
2605;DHT22;1312;50.298;8.520;2024-03-23T01:08:41;6.80;46.90
2605;DHT22;1312;50.298;8.520;2024-03-23T01:11:09;6.80;99.90
2605;DHT22;1312;50.298;8.520;2024-03-23T01:13:36;6.70;99.90
2605;DHT22;1312;50.298;8.520;2024-03-23T01:16:03;6.50;99.90
2605;DHT22;1312;50.298;8.520;2024-03-23T01:18:30;6.30;1.00
2605;DHT22;1312;50.298;8.520;2024-03-23T01:20:56;6.10;1.00
2605;DHT22;1312;50.298;8.520;2024-03-23T01:23:23;6.10;1.10
2605;DHT22;1312;50.298;8.520;2024-03-23T01:25:52;5.90;99.90
2605;DHT22;1312;50.298;8.520;2024-03-23T01:28:21;5.80;1.00
2605;DHT22;1312;50.298;8.520;2024-03-23T01:30:48;5.70;20.70
2605;DHT22;1312;50.298;8.520;2024-03-23T01:33:15;5.60;99.90
2605;DHT22;1312;50.298;8.520;2024-03-23T01:35:41;5.50;1.00
2605;DHT22;1312;50.298;8.520;2024-03-23T01:38:08;5.50;99.90
2605;DHT22;1312;50.298;8.520;2024-03-23T01:40:34;5.40;99.90
2605;DHT22;1312;50.298;8.520;2024-03-23T01:43:04;5.40;1.00
2605;DHT22;1312;50.298;8.520;2024-03-23T01:45:31;5.30;3.00
2605;DHT22;1312;50.298;8.520;2024-03-23T01:47:59;5.30;99.90
2605;DHT22;1312;50.298;8.520;2024-03-23T01:50:25;5.30;1.00
2605;DHT22;1312;50.298;8.520;2024-03-23T01:52:53;5.40;99.90
2605;DHT22;1312;50.298;8.520;2024-03-23T01:55:19;5.70;99.90
2605;DHT22;1312;50.298;8.520;2024-03-23T01:57:46;5.80;1.00
2605;DHT22;1312;50.298;8.520;2024-03-23T02:00:13;5.80;45.50
2605;DHT22;1312;50.298;8.520;2024-03-23T02:02:43;5.70;75.20
2605;DHT22;1312;50.298;8.520;2024-03-23T02:05:10;5.90;1.00
2605;DHT22;1312;50.298;8.520;2024-03-23T02:07:38;6.10;1.00
2605;DHT22;1312;50.298;8.520;2024-03-23T02:10:06;6.00;99.90
2605;DHT22;1312;50.298;8.520;2024-03-23T02:12:33;6.10;99.90
2605;DHT22;1312;50.298;8.520;2024-03-23T02:14:59;6.20;99.90
2605;DHT22;1312;50.298;8.520;2024-03-23T02:17:26;6.30;99.90
2605;DHT22;1312;50.298;8.520;2024-03-23T02:19:53;6.20;99.90
2605;DHT22;1312;50.298;8.520;2024-03-23T02:22:20;6.10;99.90
2605;DHT22;1312;50.298;8.520;2024-03-23T02:24:48;6.00;1.00
2605;DHT22;1312;50.298;8.520;2024-03-23T02:27:15;6.00;1.00
2605;DHT22;1312;50.298;8.520;2024-03-23T02:29:41;6.00;1.00
2605;DHT22;1312;50.298;8.520;2024-03-23T02:32:08;6.10;1.00
2605;DHT22;1312;50.298;8.520;2024-03-23T02:34:34;6.10;1.00
2605;DHT22;1312;50.298;8.520;2024-03-23T02:37:02;6.20;99.90
2605;DHT22;1312;50.298;8.520;2024-03-23T02:39:28;6.30;99.90
2605;DHT22;1312;50.298;8.520;2024-03-23T02:41:56;6.40;99.90
2605;DHT22;1312;50.298;8.520;2024-03-23T02:44:23;6.50;1.00
2605;DHT22;1312;50.298;8.520;2024-03-23T02:46:49;6.50;99.90
2605;DHT22;1312;50.298;8.520;2024-03-23T02:49:16;6.60;1.00
2605;DHT22;1312;50.298;8.520;2024-03-23T02:51:42;6.60;99.90
2605;DHT22;1312;50.298;8.520;2024-03-23T02:54:11;6.70;1.00
2605;DHT22;1312;50.298;8.520;2024-03-23T02:56:37;6.70;99.90
2605;DHT22;1312;50.298;8.520;2024-03-23T02:59:05;6.70;99.90
2605;DHT22;1312;50.298;8.520;2024-03-23T03:01:31;6.60;99.90
2605;DHT22;1312;50.298;8.520;2024-03-23T03:03:58;6.60;99.90
2605;DHT22;1312;50.298;8.520;2024-03-23T03:06:26;6.70;99.90
2605;DHT22;1312;50.298;8.520;2024-03-23T03:08:53;6.60;99.90
2605;DHT22;1312;50.298;8.520;2024-03-23T03:11:19;6.50;1.00
2605;DHT22;1312;50.298;8.520;2024-03-23T03:13:46;6.50;1.00
2605;DHT22;1312;50.298;8.520;2024-03-23T03:16:13;6.50;99.90
2605;DHT22;1312;50.298;8.520;2024-03-23T03:18:41;6.50;1.00
2605;DHT22;1312;50.298;8.520;2024-03-23T03:21:07;6.40;99.90
2605;DHT22;1312;50.298;8.520;2024-03-23T03:23:36;6.40;99.90
2605;DHT22;1312;50.298;8.520;2024-03-23T03:26:03;6.40;99.90
2605;DHT22;1312;50.298;8.520;2024-03-23T03:28:30;6.50;99.90
2605;DHT22;1312;50.298;8.520;2024-03-23T03:30:56;6.60;99.90
2605;DHT22;1312;50.298;8.520;2024-03-23T03:33:25;6.60;99.90
2605;DHT22;1312;50.298;8.520;2024-03-23T03:35:51;6.60;99.90
2605;DHT22;1312;50.298;8.520;2024-03-23T03:38:18;6.60;99.90
2605;DHT22;1312;50.298;8.520;2024-03-23T03:40:44;6.50;99.90
2605;DHT22;1312;50.298;8.520;2024-03-23T03:43:12;6.50;99.90
2605;DHT22;1312;50.298;8.520;2024-03-23T03:45:38;6.40;99.90
2605;DHT22;1312;50.298;8.520;2024-03-23T03:48:05;6.50;99.90
2605;DHT22;1312;50.298;8.520;2024-03-23T03:50:33;6.80;99.90
2605;DHT22;1312;50.298;8.520;2024-03-23T03:53:00;6.80;99.90
2605;DHT22;1312;50.298;8.520;2024-03-23T03:55:26;6.70;99.90
2605;DHT22;1312;50.298;8.520;2024-03-23T03:57:53;6.60;99.90
2605;DHT22;1312;50.298;8.520;2024-03-23T04:00:19;6.50;99.90
2605;DHT22;1312;50.298;8.520;2024-03-23T04:02:46;6.50;99.90
2605;DHT22;1312;50.298;8.520;2024-03-23T04:05:13;6.30;99.90
2605;DHT22;1312;50.298;8.520;2024-03-23T04:07:42;6.20;99.90
2605;DHT22;1312;50.298;8.520;2024-03-23T04:10:08;6.20;99.90
2605;DHT22;1312;50.298;8.520;2024-03-23T04:12:35;6.10;99.90
2605;DHT22;1312;50.298;8.520;2024-03-23T04:15:01;6.00;99.90
2605;DHT22;1312;50.298;8.520;2024-03-23T04:17:30;6.00;99.90
2605;DHT22;1312;50.298;8.520;2024-03-23T04:19:58;5.90;99.90
2605;DHT22;1312;50.298;8.520;2024-03-23T04:22:25;5.70;99.90
2605;DHT22;1312;50.298;8.520;2024-03-23T04:24:54;5.60;99.90
2605;DHT22;1312;50.298;8.520;2024-03-23T04:27:21;5.60;99.90
2605;DHT22;1312;50.298;8.520;2024-03-23T04:29:47;5.50;99.90
2605;DHT22;1312;50.298;8.520;2024-03-23T04:32:15;5.40;99.90
2605;DHT22;1312;50.298;8.520;2024-03-23T04:34:42;5.30;99.90
2605;DHT22;1312;50.298;8.520;2024-03-23T04:37:10;5.20;99.90
2605;DHT22;1312;50.298;8.520;2024-03-23T04:39:37;5.10;99.90
2605;DHT22;1312;50.298;8.520;2024-03-23T04:42:06;5.10;99.90
2605;DHT22;1312;50.298;8.520;2024-03-23T04:44:33;4.90;99.90
2605;DHT22;1312;50.298;8.520;2024-03-23T04:47:01;4.90;99.90
2605;DHT22;1312;50.298;8.520;2024-03-23T04:49:28;4.90;99.90
2605;DHT22;1312;50.298;8.520;2024-03-23T04:51:55;4.90;99.90
2605;DHT22;1312;50.298;8.520;2024-03-23T04:54:22;4.80;99.90
2605;DHT22;1312;50.298;8.520;2024-03-23T04:56:49;4.80;99.90
2605;DHT22;1312;50.298;8.520;2024-03-23T04:59:16;4.80;99.90
2605;DHT22;1312;50.298;8.520;2024-03-23T05:01:43;4.80;99.90
2605;DHT22;1312;50.298;8.520;2024-03-23T05:04:09;4.80;99.90
2605;DHT22;1312;50.298;8.520;2024-03-23T05:06:36;4.80;52.60
2605;DHT22;1312;50.298;8.520;2024-03-23T05:09:02;4.80;99.90
2605;DHT22;1312;50.298;8.520;2024-03-23T05:11:32;4.80;99.90
2605;DHT22;1312;50.298;8.520;2024-03-23T05:13:58;4.80;99.90
2605;DHT22;1312;50.298;8.520;2024-03-23T05:16:26;4.70;99.90
2605;DHT22;1312;50.298;8.520;2024-03-23T05:18:52;4.80;99.90
2605;DHT22;1312;50.298;8.520;2024-03-23T05:21:19;4.80;99.90
2605;DHT22;1312;50.298;8.520;2024-03-23T05:23:46;4.80;99.90
2605;DHT22;1312;50.298;8.520;2024-03-23T05:26:13;4.80;99.90
2605;DHT22;1312;50.298;8.520;2024-03-23T05:28:39;4.70;99.90
2605;DHT22;1312;50.298;8.520;2024-03-23T05:31:06;4.70;99.90
2605;DHT22;1312;50.298;8.520;2024-03-23T05:33:33;4.70;99.90
2605;DHT22;1312;50.298;8.520;2024-03-23T05:36:01;4.70;99.90
2605;DHT22;1312;50.298;8.520;2024-03-23T05:38:27;4.70;99.90
2605;DHT22;1312;50.298;8.520;2024-03-23T05:40:54;4.70;99.90
2605;DHT22;1312;50.298;8.520;2024-03-23T05:43:20;4.70;99.90
2605;DHT22;1312;50.298;8.520;2024-03-23T05:45:53;4.60;99.90
2605;DHT22;1312;50.298;8.520;2024-03-23T05:48:19;4.60;3.50
2605;DHT22;1312;50.298;8.520;2024-03-23T05:50:47;4.50;1.00
2605;DHT22;1312;50.298;8.520;2024-03-23T05:53:15;4.50;1.00
2605;DHT22;1312;50.298;8.520;2024-03-23T05:55:42;4.40;99.90
2605;DHT22;1312;50.298;8.520;2024-03-23T05:58:08;4.30;1.00
2605;DHT22;1312;50.298;8.520;2024-03-23T06:00:35;4.20;1.00
2605;DHT22;1312;50.298;8.520;2024-03-23T06:03:01;4.10;99.90
2605;DHT22;1312;50.298;8.520;2024-03-23T06:05:28;4.10;1.00
2605;DHT22;1312;50.298;8.520;2024-03-23T06:07:56;4.00;99.90
2605;DHT22;1312;50.298;8.520;2024-03-23T06:10:23;3.90;99.90
2605;DHT22;1312;50.298;8.520;2024-03-23T06:12:49;3.90;1.00
2605;DHT22;1312;50.298;8.520;2024-03-23T06:15:17;3.80;99.90
2605;DHT22;1312;50.298;8.520;2024-03-23T06:17:43;3.80;1.00
2605;DHT22;1312;50.298;8.520;2024-03-23T06:20:10;3.70;51.70
2605;DHT22;1312;50.298;8.520;2024-03-23T06:22:36;3.70;99.00
2605;DHT22;1312;50.298;8.520;2024-03-23T06:25:05;3.60;14.40
2605;DHT22;1312;50.298;8.520;2024-03-23T06:27:32;3.60;88.90
2605;DHT22;1312;50.298;8.520;2024-03-23T06:29:59;3.50;99.90
2605;DHT22;1312;50.298;8.520;2024-03-23T06:32:25;3.50;99.90
2605;DHT22;1312;50.298;8.520;2024-03-23T06:34:52;3.50;99.90
2605;DHT22;1312;50.298;8.520;2024-03-23T06:37:18;3.50;93.80
2605;DHT22;1312;50.298;8.520;2024-03-23T06:39:46;3.50;36.30
2605;DHT22;1312;50.298;8.520;2024-03-23T06:42:13;3.50;1.00
2605;DHT22;1312;50.298;8.520;2024-03-23T06:44:40;3.60;1.00
2605;DHT22;1312;50.298;8.520;2024-03-23T06:47:06;3.70;10.60
2605;DHT22;1312;50.298;8.520;2024-03-23T06:49:33;3.70;99.90
2605;DHT22;1312;50.298;8.520;2024-03-23T06:51:59;3.70;99.90
2605;DHT22;1312;50.298;8.520;2024-03-23T06:54:26;3.80;1.00
2605;DHT22;1312;50.298;8.520;2024-03-23T06:56:52;3.80;1.00
2605;DHT22;1312;50.298;8.520;2024-03-23T06:59:20;3.70;1.00
2605;DHT22;1312;50.298;8.520;2024-03-23T07:01:46;3.70;1.00
2605;DHT22;1312;50.298;8.520;2024-03-23T07:04:13;3.70;1.00
2605;DHT22;1312;50.298;8.520;2024-03-23T07:06:42;4.00;1.00
2605;DHT22;1312;50.298;8.520;2024-03-23T07:09:10;3.90;24.10
2605;DHT22;1312;50.298;8.520;2024-03-23T07:11:36;4.00;99.90
2605;DHT22;1312;50.298;8.520;2024-03-23T07:14:03;4.00;51.60
2605;DHT22;1312;50.298;8.520;2024-03-23T07:16:30;4.20;99.90
2605;DHT22;1312;50.298;8.520;2024-03-23T07:18:57;4.10;99.90
2605;DHT22;1312;50.298;8.520;2024-03-23T07:21:23;4.10;1.00
2605;DHT22;1312;50.298;8.520;2024-03-23T07:23:51;4.60;1.00
2605;DHT22;1312;50.298;8.520;2024-03-23T07:26:17;5.10;99.90
2605;DHT22;1312;50.298;8.520;2024-03-23T07:28:46;5.40;1.00
2605;DHT22;1312;50.298;8.520;2024-03-23T07:31:13;5.50;99.90
2605;DHT22;1312;50.298;8.520;2024-03-23T07:33:47;5.50;99.90
2605;DHT22;1312;50.298;8.520;2024-03-23T07:36:14;6.50;87.20
2605;DHT22;1312;50.298;8.520;2024-03-23T07:38:41;6.10;1.00
2605;DHT22;1312;50.298;8.520;2024-03-23T07:41:08;6.10;1.00
2605;DHT22;1312;50.298;8.520;2024-03-23T07:43:36;6.50;1.00
2605;DHT22;1312;50.298;8.520;2024-03-23T07:46:03;6.40;57.10
2605;DHT22;1312;50.298;8.520;2024-03-23T07:48:30;6.40;1.00
2605;DHT22;1312;50.298;8.520;2024-03-23T07:51:03;6.50;1.00
2605;DHT22;1312;50.298;8.520;2024-03-23T07:53:30;6.70;1.00
2605;DHT22;1312;50.298;8.520;2024-03-23T07:55:58;6.40;1.00
2605;DHT22;1312;50.298;8.520;2024-03-23T07:58:25;6.40;1.00
2605;DHT22;1312;50.298;8.520;2024-03-23T08:00:52;6.50;1.00
2605;DHT22;1312;50.298;8.520;2024-03-23T08:03:20;7.10;1.00
2605;DHT22;1312;50.298;8.520;2024-03-23T08:05:46;6.90;99.90
2605;DHT22;1312;50.298;8.520;2024-03-23T08:08:14;6.60;1.00
2605;DHT22;1312;50.298;8.520;2024-03-23T08:10:48;6.70;1.00
2605;DHT22;1312;50.298;8.520;2024-03-23T08:13:15;6.10;1.00
2605;DHT22;1312;50.298;8.520;2024-03-23T08:15:41;6.30;1.00
2605;DHT22;1312;50.298;8.520;2024-03-23T08:18:08;6.40;1.00
2605;DHT22;1312;50.298;8.520;2024-03-23T08:20:35;6.60;99.90
2605;DHT22;1312;50.298;8.520;2024-03-23T08:23:01;6.20;1.00
2605;DHT22;1312;50.298;8.520;2024-03-23T08:25:32;6.60;1.00
2605;DHT22;1312;50.298;8.520;2024-03-23T08:27:58;7.00;1.00
2605;DHT22;1312;50.298;8.520;2024-03-23T08:30:26;6.80;1.00
2605;DHT22;1312;50.298;8.520;2024-03-23T08:32:52;6.80;99.90
2605;DHT22;1312;50.298;8.520;2024-03-23T08:35:19;6.90;99.90
2605;DHT22;1312;50.298;8.520;2024-03-23T08:37:45;7.20;99.90
2605;DHT22;1312;50.298;8.520;2024-03-23T08:40:12;6.80;99.90
2605;DHT22;1312;50.298;8.520;2024-03-23T08:42:40;6.90;99.90
2605;DHT22;1312;50.298;8.520;2024-03-23T08:45:07;6.90;99.90
2605;DHT22;1312;50.298;8.520;2024-03-23T08:47:34;7.50;99.90
2605;DHT22;1312;50.298;8.520;2024-03-23T08:50:02;7.80;99.90
2605;DHT22;1312;50.298;8.520;2024-03-23T08:52:28;8.30;99.90
2605;DHT22;1312;50.298;8.520;2024-03-23T08:54:55;8.40;99.90
2605;DHT22;1312;50.298;8.520;2024-03-23T08:57:21;8.70;99.90
2605;DHT22;1312;50.298;8.520;2024-03-23T08:59:50;9.00;99.90
2605;DHT22;1312;50.298;8.520;2024-03-23T09:02:16;8.70;99.90
2605;DHT22;1312;50.298;8.520;2024-03-23T09:04:44;8.80;99.90
2605;DHT22;1312;50.298;8.520;2024-03-23T09:07:11;8.80;99.90
2605;DHT22;1312;50.298;8.520;2024-03-23T09:09:38;8.10;99.90
2605;DHT22;1312;50.298;8.520;2024-03-23T09:12:05;7.90;99.90
2605;DHT22;1312;50.298;8.520;2024-03-23T09:14:33;8.70;99.90
2605;DHT22;1312;50.298;8.520;2024-03-23T09:17:01;9.70;99.90
2605;DHT22;1312;50.298;8.520;2024-03-23T09:19:28;9.90;99.90
2605;DHT22;1312;50.298;8.520;2024-03-23T09:21:55;10.80;99.90
2605;DHT22;1312;50.298;8.520;2024-03-23T09:24:21;11.70;99.90
2605;DHT22;1312;50.298;8.520;2024-03-23T09:26:48;10.70;91.90
2605;DHT22;1312;50.298;8.520;2024-03-23T09:29:14;11.80;87.40
2605;DHT22;1312;50.298;8.520;2024-03-23T09:31:41;13.10;84.60
2605;DHT22;1312;50.298;8.520;2024-03-23T09:34:08;11.00;52.90
2605;DHT22;1312;50.298;8.520;2024-03-23T09:36:35;10.90;52.50
2605;DHT22;1312;50.298;8.520;2024-03-23T09:39:01;10.00;48.60
2605;DHT22;1312;50.298;8.520;2024-03-23T09:41:29;10.40;47.20
2605;DHT22;1312;50.298;8.520;2024-03-23T09:43:55;11.10;48.50
2605;DHT22;1312;50.298;8.520;2024-03-23T09:46:22;10.70;44.60
2605;DHT22;1312;50.298;8.520;2024-03-23T09:48:49;11.20;44.90
2605;DHT22;1312;50.298;8.520;2024-03-23T09:51:17;11.50;46.20
2605;DHT22;1312;50.298;8.520;2024-03-23T09:53:43;11.80;46.50
2605;DHT22;1312;50.298;8.520;2024-03-23T09:56:10;11.50;44.50
2605;DHT22;1312;50.298;8.520;2024-03-23T09:58:36;12.20;45.80
2605;DHT22;1312;50.298;8.520;2024-03-23T10:01:03;12.90;49.00
2605;DHT22;1312;50.298;8.520;2024-03-23T10:03:30;11.30;35.20
2605;DHT22;1312;50.298;8.520;2024-03-23T10:06:01;11.80;38.80
2605;DHT22;1312;50.298;8.520;2024-03-23T10:08:29;12.90;46.00
2605;DHT22;1312;50.298;8.520;2024-03-23T10:10:56;12.00;37.30
2605;DHT22;1312;50.298;8.520;2024-03-23T10:13:26;12.10;37.70
2605;DHT22;1312;50.298;8.520;2024-03-23T10:15:56;10.90;31.10
2605;DHT22;1312;50.298;8.520;2024-03-23T10:18:23;11.00;34.10
2605;DHT22;1312;50.298;8.520;2024-03-23T10:20:52;9.30;31.20
2605;DHT22;1312;50.298;8.520;2024-03-23T10:23:18;7.50;79.70
2605;DHT22;1312;50.298;8.520;2024-03-23T10:25:47;7.30;99.90
2605;DHT22;1312;50.298;8.520;2024-03-23T10:28:13;7.60;92.80
2605;DHT22;1312;50.298;8.520;2024-03-23T10:30:40;7.30;99.90
2605;DHT22;1312;50.298;8.520;2024-03-23T10:33:09;8.30;61.50
2605;DHT22;1312;50.298;8.520;2024-03-23T10:35:37;8.70;57.10
2605;DHT22;1312;50.298;8.520;2024-03-23T10:38:05;8.70;54.20
2605;DHT22;1312;50.298;8.520;2024-03-23T10:40:34;8.10;50.50
2605;DHT22;1312;50.298;8.520;2024-03-23T10:43:03;8.00;44.00
2605;DHT22;1312;50.298;8.520;2024-03-23T10:45:31;8.10;44.80
2605;DHT22;1312;50.298;8.520;2024-03-23T10:47:57;7.60;43.30
2605;DHT22;1312;50.298;8.520;2024-03-23T10:50:24;7.60;41.80
2605;DHT22;1312;50.298;8.520;2024-03-23T10:52:52;8.00;41.00
2605;DHT22;1312;50.298;8.520;2024-03-23T10:55:23;8.40;39.90
2605;DHT22;1312;50.298;8.520;2024-03-23T10:57:51;8.80;39.50
2605;DHT22;1312;50.298;8.520;2024-03-23T11:00:21;8.50;35.10
2605;DHT22;1312;50.298;8.520;2024-03-23T11:02:49;9.30;42.70
2605;DHT22;1312;50.298;8.520;2024-03-23T11:05:29;10.10;41.90
2605;DHT22;1312;50.298;8.520;2024-03-23T11:07:55;10.60;38.70
2605;DHT22;1312;50.298;8.520;2024-03-23T11:10:26;10.40;35.80
2605;DHT22;1312;50.298;8.520;2024-03-23T11:12:53;10.50;36.40
2605;DHT22;1312;50.298;8.520;2024-03-23T11:15:21;10.50;35.80
2605;DHT22;1312;50.298;8.520;2024-03-23T11:18:02;10.20;32.50
2605;DHT22;1312;50.298;8.520;2024-03-23T11:20:34;11.30;38.40
2605;DHT22;1312;50.298;8.520;2024-03-23T11:23:00;12.70;46.00
2605;DHT22;1312;50.298;8.520;2024-03-23T11:25:28;12.10;39.40
2605;DHT22;1312;50.298;8.520;2024-03-23T11:27:55;12.80;44.30
2605;DHT22;1312;50.298;8.520;2024-03-23T11:30:25;12.80;40.70
2605;DHT22;1312;50.298;8.520;2024-03-23T11:32:53;11.90;34.40
2605;DHT22;1312;50.298;8.520;2024-03-23T11:35:27;10.90;27.30
2605;DHT22;1312;50.298;8.520;2024-03-23T11:38:07;10.40;24.80
2605;DHT22;1312;50.298;8.520;2024-03-23T11:40:35;10.80;27.50
2605;DHT22;1312;50.298;8.520;2024-03-23T11:43:04;11.90;33.90
2605;DHT22;1312;50.298;8.520;2024-03-23T11:45:37;11.80;33.30
2605;DHT22;1312;50.298;8.520;2024-03-23T11:48:05;12.00;34.20
2605;DHT22;1312;50.298;8.520;2024-03-23T11:50:32;12.30;35.50
2605;DHT22;1312;50.298;8.520;2024-03-23T11:53:14;12.50;36.60
2605;DHT22;1312;50.298;8.520;2024-03-23T11:55:46;12.30;34.70
2605;DHT22;1312;50.298;8.520;2024-03-23T11:58:13;12.50;36.10
2605;DHT22;1312;50.298;8.520;2024-03-23T12:00:42;12.80;37.40
2605;DHT22;1312;50.298;8.520;2024-03-23T12:03:08;12.20;31.50
2605;DHT22;1312;50.298;8.520;2024-03-23T12:05:36;11.50;27.80
2605;DHT22;1312;50.298;8.520;2024-03-23T12:08:19;11.90;29.80
2605;DHT22;1312;50.298;8.520;2024-03-23T12:10:48;11.70;27.60
2605;DHT22;1312;50.298;8.520;2024-03-23T12:13:16;12.30;32.30
2605;DHT22;1312;50.298;8.520;2024-03-23T12:15:45;12.30;31.60
2605;DHT22;1312;50.298;8.520;2024-03-23T12:18:12;12.00;29.00
2605;DHT22;1312;50.298;8.520;2024-03-23T12:20:39;11.60;26.40
2605;DHT22;1312;50.298;8.520;2024-03-23T12:23:07;12.50;32.40
2605;DHT22;1312;50.298;8.520;2024-03-23T12:25:35;11.80;32.00
2605;DHT22;1312;50.298;8.520;2024-03-23T12:28:02;12.10;29.70
2605;DHT22;1312;50.298;8.520;2024-03-23T12:30:32;11.70;27.70
2605;DHT22;1312;50.298;8.520;2024-03-23T12:32:59;11.70;27.10
2605;DHT22;1312;50.298;8.520;2024-03-23T12:35:26;10.80;23.40
2605;DHT22;1312;50.298;8.520;2024-03-23T12:37:52;9.80;37.30
2605;DHT22;1312;50.298;8.520;2024-03-23T12:40:19;8.50;99.90
2605;DHT22;1312;50.298;8.520;2024-03-23T12:42:45;6.40;1.00
2605;DHT22;1312;50.298;8.520;2024-03-23T12:45:13;4.70;99.90
2605;DHT22;1312;50.298;8.520;2024-03-23T12:47:39;3.60;1.00
2605;DHT22;1312;50.298;8.520;2024-03-23T12:50:08;3.00;99.90
2605;DHT22;1312;50.298;8.520;2024-03-23T12:52:35;3.00;99.90
2605;DHT22;1312;50.298;8.520;2024-03-23T12:55:02;3.10;99.90
2605;DHT22;1312;50.298;8.520;2024-03-23T12:57:29;2.80;99.90
2605;DHT22;1312;50.298;8.520;2024-03-23T12:59:56;2.60;99.90
2605;DHT22;1312;50.298;8.520;2024-03-23T13:02:23;2.10;99.90
2605;DHT22;1312;50.298;8.520;2024-03-23T13:04:50;1.40;99.90
2605;DHT22;1312;50.298;8.520;2024-03-23T13:07:19;1.30;99.90
2605;DHT22;1312;50.298;8.520;2024-03-23T13:09:49;1.10;99.90
2605;DHT22;1312;50.298;8.520;2024-03-23T13:12:15;1.30;99.90
2605;DHT22;1312;50.298;8.520;2024-03-23T13:14:42;1.50;99.90
2605;DHT22;1312;50.298;8.520;2024-03-23T13:17:08;1.60;99.90
2605;DHT22;1312;50.298;8.520;2024-03-23T13:19:36;1.50;99.90
2605;DHT22;1312;50.298;8.520;2024-03-23T13:22:02;1.30;99.90
2605;DHT22;1312;50.298;8.520;2024-03-23T13:24:31;1.40;99.90
2605;DHT22;1312;50.298;8.520;2024-03-23T13:26:57;1.40;99.90
2605;DHT22;1312;50.298;8.520;2024-03-23T13:29:24;1.40;99.90
2605;DHT22;1312;50.298;8.520;2024-03-23T13:31:52;1.40;99.90
2605;DHT22;1312;50.298;8.520;2024-03-23T13:34:19;1.60;99.90
2605;DHT22;1312;50.298;8.520;2024-03-23T13:36:46;2.00;99.90
2605;DHT22;1312;50.298;8.520;2024-03-23T13:39:14;2.60;99.90
2605;DHT22;1312;50.298;8.520;2024-03-23T13:41:44;3.50;99.90
2605;DHT22;1312;50.298;8.520;2024-03-23T13:44:13;4.30;99.90
2605;DHT22;1312;50.298;8.520;2024-03-23T13:46:40;4.60;99.90
2605;DHT22;1312;50.298;8.520;2024-03-23T13:49:24;5.40;99.90
2605;DHT22;1312;50.298;8.520;2024-03-23T13:51:50;6.00;99.90
2605;DHT22;1312;50.298;8.520;2024-03-23T13:54:18;6.00;99.90
2605;DHT22;1312;50.298;8.520;2024-03-23T13:56:45;6.10;62.00
2605;DHT22;1312;50.298;8.520;2024-03-23T13:59:14;6.40;99.90
2605;DHT22;1312;50.298;8.520;2024-03-23T14:01:40;6.20;1.00
2605;DHT22;1312;50.298;8.520;2024-03-23T14:04:07;6.00;99.90
2605;DHT22;1312;50.298;8.520;2024-03-23T14:06:33;5.70;1.00
2605;DHT22;1312;50.298;8.520;2024-03-23T14:09:01;5.30;1.00
2605;DHT22;1312;50.298;8.520;2024-03-23T14:11:29;5.40;99.90
2605;DHT22;1312;50.298;8.520;2024-03-23T14:13:58;5.80;99.90
2605;DHT22;1312;50.298;8.520;2024-03-23T14:16:24;6.00;99.90
2605;DHT22;1312;50.298;8.520;2024-03-23T14:18:51;5.60;99.90
2605;DHT22;1312;50.298;8.520;2024-03-23T14:21:17;6.00;1.00
2605;DHT22;1312;50.298;8.520;2024-03-23T14:23:44;6.00;1.00
2605;DHT22;1312;50.298;8.520;2024-03-23T14:26:10;6.20;99.90
2605;DHT22;1312;50.298;8.520;2024-03-23T14:28:37;6.60;99.90
2605;DHT22;1312;50.298;8.520;2024-03-23T14:31:05;6.70;1.00
2605;DHT22;1312;50.298;8.520;2024-03-23T14:33:36;6.50;99.90
2605;DHT22;1312;50.298;8.520;2024-03-23T14:36:04;6.30;10.40
2605;DHT22;1312;50.298;8.520;2024-03-23T14:38:31;5.80;99.90
2605;DHT22;1312;50.298;8.520;2024-03-23T14:40:58;6.20;99.90
2605;DHT22;1312;50.298;8.520;2024-03-23T14:43:25;7.00;1.00
2605;DHT22;1312;50.298;8.520;2024-03-23T14:46:09;7.00;1.00
2605;DHT22;1312;50.298;8.520;2024-03-23T14:48:37;6.80;39.00
2605;DHT22;1312;50.298;8.520;2024-03-23T14:51:03;7.40;99.90
2605;DHT22;1312;50.298;8.520;2024-03-23T14:53:31;7.80;55.00
2605;DHT22;1312;50.298;8.520;2024-03-23T14:55:57;7.80;1.00
2605;DHT22;1312;50.298;8.520;2024-03-23T14:58:26;7.60;1.00
2605;DHT22;1312;50.298;8.520;2024-03-23T15:00:52;7.60;1.00
2605;DHT22;1312;50.298;8.520;2024-03-23T15:03:21;7.80;1.00
2605;DHT22;1312;50.298;8.520;2024-03-23T15:05:53;7.80;1.00
2605;DHT22;1312;50.298;8.520;2024-03-23T15:08:21;7.90;1.00
2605;DHT22;1312;50.298;8.520;2024-03-23T15:10:47;7.70;99.90
2605;DHT22;1312;50.298;8.520;2024-03-23T15:13:14;7.20;99.90
2605;DHT22;1312;50.298;8.520;2024-03-23T15:15:40;6.70;99.90
2605;DHT22;1312;50.298;8.520;2024-03-23T15:18:10;6.60;1.00
2605;DHT22;1312;50.298;8.520;2024-03-23T15:20:37;6.30;1.00
2605;DHT22;1312;50.298;8.520;2024-03-23T15:23:04;6.20;1.00
2605;DHT22;1312;50.298;8.520;2024-03-23T15:25:31;6.10;1.00
2605;DHT22;1312;50.298;8.520;2024-03-23T15:27:58;5.90;1.00
2605;DHT22;1312;50.298;8.520;2024-03-23T15:30:25;5.90;99.90
2605;DHT22;1312;50.298;8.520;2024-03-23T15:32:52;5.60;99.90
2605;DHT22;1312;50.298;8.520;2024-03-23T15:35:18;5.30;99.90
2605;DHT22;1312;50.298;8.520;2024-03-23T15:37:50;4.50;39.90
2605;DHT22;1312;50.298;8.520;2024-03-23T15:40:16;3.70;1.00
2605;DHT22;1312;50.298;8.520;2024-03-23T15:42:43;3.50;29.20
2605;DHT22;1312;50.298;8.520;2024-03-23T15:45:09;3.40;99.90
2605;DHT22;1312;50.298;8.520;2024-03-23T15:47:37;3.40;99.90
2605;DHT22;1312;50.298;8.520;2024-03-23T15:50:03;3.40;99.90
2605;DHT22;1312;50.298;8.520;2024-03-23T15:52:35;3.40;99.90
2605;DHT22;1312;50.298;8.520;2024-03-23T15:55:03;3.40;1.00
2605;DHT22;1312;50.298;8.520;2024-03-23T15:57:33;3.40;1.00
2605;DHT22;1312;50.298;8.520;2024-03-23T15:59:59;3.40;1.00
2605;DHT22;1312;50.298;8.520;2024-03-23T16:02:26;3.60;1.00
2605;DHT22;1312;50.298;8.520;2024-03-23T16:04:53;4.00;99.90
2605;DHT22;1312;50.298;8.520;2024-03-23T16:07:20;4.40;1.00
2605;DHT22;1312;50.298;8.520;2024-03-23T16:09:46;4.50;1.00
2605;DHT22;1312;50.298;8.520;2024-03-23T16:12:14;4.50;99.90
2605;DHT22;1312;50.298;8.520;2024-03-23T16:14:40;4.30;1.00
2605;DHT22;1312;50.298;8.520;2024-03-23T16:17:07;4.20;1.00
2605;DHT22;1312;50.298;8.520;2024-03-23T16:19:34;4.10;99.90
2605;DHT22;1312;50.298;8.520;2024-03-23T16:22:00;4.10;1.00
2605;DHT22;1312;50.298;8.520;2024-03-23T16:24:27;4.00;1.00
2605;DHT22;1312;50.298;8.520;2024-03-23T16:26:53;3.80;1.00
2605;DHT22;1312;50.298;8.520;2024-03-23T16:29:21;3.70;59.20
2605;DHT22;1312;50.298;8.520;2024-03-23T16:31:47;3.80;1.00
2605;DHT22;1312;50.298;8.520;2024-03-23T16:34:14;3.70;1.00
2605;DHT22;1312;50.298;8.520;2024-03-23T16:36:40;3.80;1.00
2605;DHT22;1312;50.298;8.520;2024-03-23T16:39:07;3.80;1.00
2605;DHT22;1312;50.298;8.520;2024-03-23T16:41:34;4.00;99.90
2605;DHT22;1312;50.298;8.520;2024-03-23T16:44:01;4.00;99.90
2605;DHT22;1312;50.298;8.520;2024-03-23T16:46:29;4.00;1.00
2605;DHT22;1312;50.298;8.520;2024-03-23T16:48:56;4.00;1.00
2605;DHT22;1312;50.298;8.520;2024-03-23T16:51:22;4.00;99.90
2605;DHT22;1312;50.298;8.520;2024-03-23T16:53:49;4.00;1.00
2605;DHT22;1312;50.298;8.520;2024-03-23T16:56:19;4.00;89.20
2605;DHT22;1312;50.298;8.520;2024-03-23T16:58:46;3.90;99.90
2605;DHT22;1312;50.298;8.520;2024-03-23T17:01:14;3.80;99.90
2605;DHT22;1312;50.298;8.520;2024-03-23T17:03:48;3.70;1.00
2605;DHT22;1312;50.298;8.520;2024-03-23T17:06:15;3.60;99.90
2605;DHT22;1312;50.298;8.520;2024-03-23T17:08:44;3.60;99.90
2605;DHT22;1312;50.298;8.520;2024-03-23T17:11:10;3.60;99.90
2605;DHT22;1312;50.298;8.520;2024-03-23T17:13:37;3.60;94.20